Terminal Aerodrome Forecast
Issued by NWS Wilmington, OH

Current Version | Previous Version | Graphics & Text | Print | Product List | Glossary On
Versions: 1 2 3 4 5 6 7 8 9 10 11 12 13 14 15 16 17 18 19 20
000
FTUS41 KILN 031731
TAFCMH
TAF
KCMH 031731Z 0318/0418 28006KT P6SM OVC035
     FM032300 00000KT P6SM BKN035
     FM041100 VRB03KT P6SM FEW040 BKN150
     FM041500 12006KT P6SM VCSH BKN080=

USA.gov is the U.S. government's official web portal to all federal, state and local government web resources and services.